Terminal Aerodrome Forecast
Issued by NWS

Home | Current Version | Previous Version | Text Only | Print | Product List | Glossary On
Versions: 1 2 3 4 5 6 7 8 9 10 11 12 13 14 15 16 17 18 19 20 21 22 23 24 25 26 27 28
000
FTUS46 KPDT 210900 AAA
TAFDLS
TAF AMD
KDLS 210911Z 2109/2206 30005KT 6SM BR BKN006
     FM211500 30004KT P6SM FEW070
     FM211800 31010KT P6SM FEW070 OVC200
     FM220200 30005KT P6SM SCT080 OVC120=

USA.gov is the U.S. government's official web portal to all federal, state and local government web resources and services.